sensor_id;sensor_type;location;lat;lon;timestamp;P1;durP1;ratioP1;P2;durP2;ratioP2
50161;SDS011;36061;48.116;11.612;2022-07-01T04:00:16;4.93;;;1.27;;
50161;SDS011;36061;48.116;11.612;2022-07-01T04:02:41;0.70;;;0.70;;
50161;SDS011;36061;48.116;11.612;2022-07-01T04:05:07;0.90;;;0.90;;
50161;SDS011;36061;48.116;11.612;2022-07-01T04:07:33;0.90;;;0.90;;
50161;SDS011;36061;48.116;11.612;2022-07-01T04:09:59;1.57;;;0.97;;
50161;SDS011;36061;48.116;11.612;2022-07-01T04:12:25;1.77;;;1.10;;
50161;SDS011;36061;48.116;11.612;2022-07-01T04:14:51;2.40;;;1.00;;
50161;SDS011;36061;48.116;11.612;2022-07-01T04:17:17;2.50;;;1.10;;
50161;SDS011;36061;48.116;11.612;2022-07-01T04:19:42;1.63;;;1.10;;
50161;SDS011;36061;48.116;11.612;2022-07-01T04:22:08;2.10;;;1.20;;
50161;SDS011;36061;48.116;11.612;2022-07-01T04:24:53;5.77;;;2.30;;
50161;SDS011;36061;48.116;11.612;2022-07-01T04:27:18;3.47;;;1.17;;
50161;SDS011;36061;48.116;11.612;2022-07-01T04:29:44;0.90;;;0.90;;
50161;SDS011;36061;48.116;11.612;2022-07-01T04:32:10;4.30;;;1.40;;
50161;SDS011;36061;48.116;11.612;2022-07-01T04:34:36;1.30;;;1.20;;
50161;SDS011;36061;48.116;11.612;2022-07-01T04:37:01;0.93;;;0.80;;
50161;SDS011;36061;48.116;11.612;2022-07-01T04:39:27;0.97;;;0.90;;
50161;SDS011;36061;48.116;11.612;2022-07-01T04:41:53;1.70;;;0.97;;
50161;SDS011;36061;48.116;11.612;2022-07-01T04:44:25;1.20;;;0.90;;
50161;SDS011;36061;48.116;11.612;2022-07-01T04:46:52;1.47;;;1.13;;
50161;SDS011;36061;48.116;11.612;2022-07-01T04:49:18;1.97;;;0.90;;
50161;SDS011;36061;48.116;11.612;2022-07-01T04:51:44;0.90;;;0.90;;
50161;SDS011;36061;48.116;11.612;2022-07-01T04:54:09;2.57;;;1.03;;
50161;SDS011;36061;48.116;11.612;2022-07-01T04:56:36;3.23;;;1.13;;
50161;SDS011;36061;48.116;11.612;2022-07-01T04:59:02;3.70;;;0.97;;
50161;SDS011;36061;48.116;11.612;2022-07-01T05:01:28;1.07;;;0.90;;
50161;SDS011;36061;48.116;11.612;2022-07-01T05:03:55;2.67;;;1.53;;
50161;SDS011;36061;48.116;11.612;2022-07-01T05:06:21;1.40;;;1.20;;
50161;SDS011;36061;48.116;11.612;2022-07-01T05:08:47;0.90;;;0.80;;
50161;SDS011;36061;48.116;11.612;2022-07-01T05:11:13;1.20;;;1.10;;
50161;SDS011;36061;48.116;11.612;2022-07-01T05:13:39;2.10;;;0.87;;
50161;SDS011;36061;48.116;11.612;2022-07-01T05:16:05;0.80;;;0.80;;
50161;SDS011;36061;48.116;11.612;2022-07-01T05:18:34;2.97;;;0.97;;
50161;SDS011;36061;48.116;11.612;2022-07-01T05:21:18;2.70;;;1.17;;
50161;SDS011;36061;48.116;11.612;2022-07-01T05:24:03;1.23;;;0.90;;
50161;SDS011;36061;48.116;11.612;2022-07-01T05:26:29;2.27;;;1.30;;
50161;SDS011;36061;48.116;11.612;2022-07-01T05:28:55;1.23;;;0.90;;
50161;SDS011;36061;48.116;11.612;2022-07-01T05:31:21;2.13;;;1.20;;
50161;SDS011;36061;48.116;11.612;2022-07-01T05:33:47;1.23;;;1.13;;
50161;SDS011;36061;48.116;11.612;2022-07-01T05:36:13;1.13;;;0.80;;
50161;SDS011;36061;48.116;11.612;2022-07-01T05:38:40;2.00;;;1.00;;
50161;SDS011;36061;48.116;11.612;2022-07-01T05:41:05;2.47;;;1.23;;
50161;SDS011;36061;48.116;11.612;2022-07-01T05:43:32;1.50;;;1.10;;
50161;SDS011;36061;48.116;11.612;2022-07-01T05:45:58;1.40;;;1.17;;
50161;SDS011;36061;48.116;11.612;2022-07-01T05:48:24;4.17;;;1.00;;
50161;SDS011;36061;48.116;11.612;2022-07-01T05:50:50;3.43;;;1.10;;
50161;SDS011;36061;48.116;11.612;2022-07-01T05:53:18;1.47;;;1.17;;
50161;SDS011;36061;48.116;11.612;2022-07-01T05:55:45;1.47;;;1.03;;
50161;SDS011;36061;48.116;11.612;2022-07-01T05:58:11;1.10;;;1.00;;
50161;SDS011;36061;48.116;11.612;2022-07-01T06:00:38;1.40;;;0.97;;
50161;SDS011;36061;48.116;11.612;2022-07-01T06:03:11;1.00;;;0.90;;
50161;SDS011;36061;48.116;11.612;2022-07-01T06:05:39;5.63;;;1.27;;
50161;SDS011;36061;48.116;11.612;2022-07-01T06:08:08;4.87;;;1.20;;
50161;SDS011;36061;48.116;11.612;2022-07-01T06:10:34;4.10;;;1.20;;
50161;SDS011;36061;48.116;11.612;2022-07-01T06:13:01;1.47;;;1.20;;
50161;SDS011;36061;48.116;11.612;2022-07-01T06:15:27;1.83;;;0.87;;
50161;SDS011;36061;48.116;11.612;2022-07-01T06:17:53;0.90;;;0.90;;
50161;SDS011;36061;48.116;11.612;2022-07-01T06:20:19;1.10;;;0.90;;
50161;SDS011;36061;48.116;11.612;2022-07-01T06:22:45;4.63;;;1.00;;
50161;SDS011;36061;48.116;11.612;2022-07-01T06:25:11;0.80;;;0.80;;
50161;SDS011;36061;48.116;11.612;2022-07-01T06:27:38;0.97;;;0.80;;
50161;SDS011;36061;48.116;11.612;2022-07-01T06:30:04;1.10;;;1.00;;
50161;SDS011;36061;48.116;11.612;2022-07-01T06:32:31;3.33;;;1.10;;
50161;SDS011;36061;48.116;11.612;2022-07-01T06:34:56;1.00;;;0.90;;
50161;SDS011;36061;48.116;11.612;2022-07-01T06:37:22;1.20;;;1.00;;
50161;SDS011;36061;48.116;11.612;2022-07-01T06:39:48;5.23;;;1.10;;
50161;SDS011;36061;48.116;11.612;2022-07-01T06:42:14;1.50;;;1.00;;
50161;SDS011;36061;48.116;11.612;2022-07-01T06:44:42;2.23;;;1.20;;
50161;SDS011;36061;48.116;11.612;2022-07-01T06:47:08;1.10;;;1.00;;
50161;SDS011;36061;48.116;11.612;2022-07-01T06:49:34;1.10;;;0.97;;
50161;SDS011;36061;48.116;11.612;2022-07-01T06:51:59;1.47;;;1.00;;
50161;SDS011;36061;48.116;11.612;2022-07-01T06:54:25;2.00;;;1.00;;
50161;SDS011;36061;48.116;11.612;2022-07-01T06:56:53;1.20;;;1.07;;
50161;SDS011;36061;48.116;11.612;2022-07-01T06:59:19;1.43;;;1.10;;
50161;SDS011;36061;48.116;11.612;2022-07-01T07:01:45;1.10;;;1.00;;
50161;SDS011;36061;48.116;11.612;2022-07-01T07:04:11;2.20;;;1.20;;
50161;SDS011;36061;48.116;11.612;2022-07-01T07:06:37;1.07;;;0.97;;
50161;SDS011;36061;48.116;11.612;2022-07-01T07:09:03;1.53;;;1.13;;
50161;SDS011;36061;48.116;11.612;2022-07-01T07:11:29;1.20;;;1.10;;
50161;SDS011;36061;48.116;11.612;2022-07-01T07:13:55;1.80;;;1.30;;
50161;SDS011;36061;48.116;11.612;2022-07-01T07:16:20;1.53;;;1.30;;
50161;SDS011;36061;48.116;11.612;2022-07-01T07:18:47;1.60;;;1.23;;
50161;SDS011;36061;48.116;11.612;2022-07-01T07:21:13;3.43;;;1.07;;
50161;SDS011;36061;48.116;11.612;2022-07-01T07:23:39;2.70;;;1.10;;
50161;SDS011;36061;48.116;11.612;2022-07-01T07:26:06;1.87;;;1.00;;
50161;SDS011;36061;48.116;11.612;2022-07-01T07:28:32;1.90;;;1.63;;
50161;SDS011;36061;48.116;11.612;2022-07-01T07:30:57;1.10;;;1.00;;
50161;SDS011;36061;48.116;11.612;2022-07-01T07:33:24;2.00;;;1.40;;
50161;SDS011;36061;48.116;11.612;2022-07-01T07:35:49;1.47;;;1.20;;
50161;SDS011;36061;48.116;11.612;2022-07-01T07:38:15;1.90;;;1.10;;
50161;SDS011;36061;48.116;11.612;2022-07-01T07:40:41;1.40;;;1.30;;
50161;SDS011;36061;48.116;11.612;2022-07-01T07:43:07;1.93;;;1.40;;
50161;SDS011;36061;48.116;11.612;2022-07-01T07:45:33;1.40;;;1.30;;
50161;SDS011;36061;48.116;11.612;2022-07-01T07:47:59;1.57;;;1.43;;
50161;SDS011;36061;48.116;11.612;2022-07-01T07:50:26;1.83;;;1.60;;
50161;SDS011;36061;48.116;11.612;2022-07-01T07:52:51;1.97;;;1.70;;
50161;SDS011;36061;48.116;11.612;2022-07-01T07:55:20;1.67;;;1.50;;
50161;SDS011;36061;48.116;11.612;2022-07-01T07:57:47;4.70;;;1.73;;
50161;SDS011;36061;48.116;11.612;2022-07-01T08:00:13;2.93;;;1.90;;
50161;SDS011;36061;48.116;11.612;2022-07-01T08:02:39;4.33;;;2.17;;
50161;SDS011;36061;48.116;11.612;2022-07-01T08:05:07;2.70;;;2.07;;
50161;SDS011;36061;48.116;11.612;2022-07-01T08:07:37;2.30;;;1.90;;
50161;SDS011;36061;48.116;11.612;2022-07-01T08:10:08;2.93;;;2.60;;
50161;SDS011;36061;48.116;11.612;2022-07-01T08:12:36;2.43;;;2.10;;
50161;SDS011;36061;48.116;11.612;2022-07-01T08:15:02;2.27;;;2.10;;
50161;SDS011;36061;48.116;11.612;2022-07-01T08:17:29;2.53;;;2.30;;
50161;SDS011;36061;48.116;11.612;2022-07-01T08:19:55;5.17;;;2.37;;
50161;SDS011;36061;48.116;11.612;2022-07-01T08:22:21;3.80;;;2.50;;
50161;SDS011;36061;48.116;11.612;2022-07-01T08:24:47;2.00;;;1.80;;
50161;SDS011;36061;48.116;11.612;2022-07-01T08:27:13;4.33;;;1.17;;
50161;SDS011;36061;48.116;11.612;2022-07-01T08:29:39;1.93;;;0.87;;
50161;SDS011;36061;48.116;11.612;2022-07-01T08:32:05;2.63;;;1.00;;
50161;SDS011;36061;48.116;11.612;2022-07-01T08:34:33;1.37;;;0.67;;
50161;SDS011;36061;48.116;11.612;2022-07-01T08:37:00;2.20;;;0.80;;
50161;SDS011;36061;48.116;11.612;2022-07-01T08:39:25;3.50;;;0.83;;
50161;SDS011;36061;48.116;11.612;2022-07-01T08:41:51;3.30;;;0.80;;
50161;SDS011;36061;48.116;11.612;2022-07-01T08:44:17;2.03;;;0.83;;
50161;SDS011;36061;48.116;11.612;2022-07-01T08:46:43;1.23;;;0.80;;
50161;SDS011;36061;48.116;11.612;2022-07-01T08:49:09;1.97;;;0.80;;
50161;SDS011;36061;48.116;11.612;2022-07-01T08:51:34;3.27;;;1.00;;
50161;SDS011;36061;48.116;11.612;2022-07-01T08:54:00;1.17;;;1.00;;
50161;SDS011;36061;48.116;11.612;2022-07-01T08:56:26;1.70;;;1.13;;
50161;SDS011;36061;48.116;11.612;2022-07-01T08:59:10;0.73;;;0.73;;
50161;SDS011;36061;48.116;11.612;2022-07-01T09:01:38;1.20;;;1.10;;
50161;SDS011;36061;48.116;11.612;2022-07-01T09:04:15;2.10;;;0.90;;
50161;SDS011;36061;48.116;11.612;2022-07-01T09:06:42;6.53;;;2.27;;
50161;SDS011;36061;48.116;11.612;2022-07-01T09:11:45;2.33;;;1.37;;
50161;SDS011;36061;48.116;11.612;2022-07-01T09:14:20;1.80;;;1.20;;
50161;SDS011;36061;48.116;11.612;2022-07-01T09:16:51;1.07;;;1.00;;
50161;SDS011;36061;48.116;11.612;2022-07-01T09:19:20;1.13;;;0.80;;
50161;SDS011;36061;48.116;11.612;2022-07-01T09:21:50;1.13;;;0.90;;
50161;SDS011;36061;48.116;11.612;2022-07-01T09:27:04;1.00;;;1.00;;
50161;SDS011;36061;48.116;11.612;2022-07-01T09:29:36;0.60;;;0.60;;
50161;SDS011;36061;48.116;11.612;2022-07-01T09:32:04;1.70;;;0.83;;
50161;SDS011;36061;48.116;11.612;2022-07-01T09:34:32;1.47;;;1.00;;
50161;SDS011;36061;48.116;11.612;2022-07-01T09:37:13;2.00;;;1.10;;
50161;SDS011;36061;48.116;11.612;2022-07-01T09:39:47;1.20;;;1.10;;
50161;SDS011;36061;48.116;11.612;2022-07-01T09:42:18;1.13;;;0.80;;
50161;SDS011;36061;48.116;11.612;2022-07-01T09:44:53;1.03;;;0.80;;
50161;SDS011;36061;48.116;11.612;2022-07-01T09:47:22;2.50;;;1.00;;
50161;SDS011;36061;48.116;11.612;2022-07-01T09:49:52;0.80;;;0.80;;
50161;SDS011;36061;48.116;11.612;2022-07-01T09:52:19;0.80;;;0.80;;
50161;SDS011;36061;48.116;11.612;2022-07-01T09:54:45;5.17;;;1.40;;
50161;SDS011;36061;48.116;11.612;2022-07-01T09:57:18;0.80;;;0.80;;
50161;SDS011;36061;48.116;11.612;2022-07-01T09:59:44;0.70;;;0.67;;
50161;SDS011;36061;48.116;11.612;2022-07-01T10:02:11;0.70;;;0.70;;
50161;SDS011;36061;48.116;11.612;2022-07-01T10:04:38;0.70;;;0.70;;
50161;SDS011;36061;48.116;11.612;2022-07-01T10:07:17;2.57;;;0.63;;
50161;SDS011;36061;48.116;11.612;2022-07-01T10:09:56;0.63;;;0.63;;
50161;SDS011;36061;48.116;11.612;2022-07-01T10:12:55;3.13;;;0.80;;
50161;SDS011;36061;48.116;11.612;2022-07-01T10:15:21;1.93;;;0.87;;
50161;SDS011;36061;48.116;11.612;2022-07-01T10:17:49;0.90;;;0.90;;
50161;SDS011;36061;48.116;11.612;2022-07-01T10:22:43;0.90;;;0.83;;
50161;SDS011;36061;48.116;11.612;2022-07-01T10:25:29;0.93;;;0.80;;
50161;SDS011;36061;48.116;11.612;2022-07-01T10:41:35;3.63;;;0.90;;
50161;SDS011;36061;48.116;11.612;2022-07-01T10:44:02;1.23;;;1.00;;
50161;SDS011;36061;48.116;11.612;2022-07-01T10:52:06;2.27;;;1.23;;
50161;SDS011;36061;48.116;11.612;2022-07-01T11:05:01;0.80;;;0.80;;
50161;SDS011;36061;48.116;11.612;2022-07-01T11:07:28;1.07;;;1.00;;
50161;SDS011;36061;48.116;11.612;2022-07-01T11:09:56;3.40;;;1.03;;
50161;SDS011;36061;48.116;11.612;2022-07-01T11:12:22;1.30;;;1.20;;
50161;SDS011;36061;48.116;11.612;2022-07-01T11:14:49;1.37;;;1.10;;
50161;SDS011;36061;48.116;11.612;2022-07-01T11:17:17;1.80;;;1.00;;
50161;SDS011;36061;48.116;11.612;2022-07-01T11:19:48;1.23;;;1.00;;
50161;SDS011;36061;48.116;11.612;2022-07-01T11:22:19;1.37;;;0.90;;
50161;SDS011;36061;48.116;11.612;2022-07-01T11:24:45;1.03;;;0.93;;
50161;SDS011;36061;48.116;11.612;2022-07-01T11:27:16;3.27;;;1.10;;
50161;SDS011;36061;48.116;11.612;2022-07-01T11:29:42;2.07;;;1.10;;
50161;SDS011;36061;48.116;11.612;2022-07-01T11:32:07;1.73;;;0.97;;
50161;SDS011;36061;48.116;11.612;2022-07-01T11:34:35;1.77;;;1.03;;
50161;SDS011;36061;48.116;11.612;2022-07-01T11:37:08;1.57;;;1.10;;
50161;SDS011;36061;48.116;11.612;2022-07-01T11:40:02;1.13;;;1.03;;
50161;SDS011;36061;48.116;11.612;2022-07-01T11:42:35;1.10;;;1.00;;
50161;SDS011;36061;48.116;11.612;2022-07-01T11:45:02;1.03;;;0.93;;
50161;SDS011;36061;48.116;11.612;2022-07-01T11:47:29;0.93;;;0.90;;
50161;SDS011;36061;48.116;11.612;2022-07-01T11:49:55;1.87;;;1.00;;
50161;SDS011;36061;48.116;11.612;2022-07-01T11:52:22;4.30;;;1.40;;
50161;SDS011;36061;48.116;11.612;2022-07-01T11:54:49;4.73;;;1.63;;
50161;SDS011;36061;48.116;11.612;2022-07-01T11:57:18;2.73;;;1.30;;
50161;SDS011;36061;48.116;11.612;2022-07-01T11:59:46;2.67;;;1.50;;
50161;SDS011;36061;48.116;11.612;2022-07-01T12:02:13;2.83;;;1.10;;
50161;SDS011;36061;48.116;11.612;2022-07-01T12:04:41;3.43;;;1.60;;
50161;SDS011;36061;48.116;11.612;2022-07-01T12:07:07;1.30;;;1.20;;
50161;SDS011;36061;48.116;11.612;2022-07-01T12:09:36;2.00;;;1.73;;
50161;SDS011;36061;48.116;11.612;2022-07-01T12:12:02;1.10;;;1.00;;
50161;SDS011;36061;48.116;11.612;2022-07-01T12:14:30;1.33;;;1.23;;
50161;SDS011;36061;48.116;11.612;2022-07-01T12:17:02;2.60;;;1.20;;
50161;SDS011;36061;48.116;11.612;2022-07-01T12:22:00;1.40;;;1.30;;
50161;SDS011;36061;48.116;11.612;2022-07-01T12:24:29;2.00;;;1.47;;
50161;SDS011;36061;48.116;11.612;2022-07-01T12:29:24;1.40;;;1.30;;
50161;SDS011;36061;48.116;11.612;2022-07-01T12:35:25;2.53;;;1.67;;
50161;SDS011;36061;48.116;11.612;2022-07-01T12:37:30;3.20;;;1.40;;
50161;SDS011;36061;48.116;11.612;2022-07-01T12:39:59;1.67;;;1.50;;
50161;SDS011;36061;48.116;11.612;2022-07-01T12:42:44;4.90;;;3.07;;
50161;SDS011;36061;48.116;11.612;2022-07-01T12:45:12;2.37;;;1.53;;
50161;SDS011;36061;48.116;11.612;2022-07-01T12:47:43;1.80;;;1.67;;
50161;SDS011;36061;48.116;11.612;2022-07-01T12:53:09;2.13;;;1.30;;
50161;SDS011;36061;48.116;11.612;2022-07-01T12:58:45;3.97;;;1.60;;
50161;SDS011;36061;48.116;11.612;2022-07-01T13:00:55;2.23;;;1.57;;
50161;SDS011;36061;48.116;11.612;2022-07-01T13:03:26;4.17;;;2.13;;
50161;SDS011;36061;48.116;11.612;2022-07-01T13:05:54;2.07;;;1.87;;
50161;SDS011;36061;48.116;11.612;2022-07-01T13:08:21;2.70;;;2.10;;
50161;SDS011;36061;48.116;11.612;2022-07-01T13:10:47;2.70;;;1.90;;
50161;SDS011;36061;48.116;11.612;2022-07-01T13:13:13;5.27;;;2.17;;
50161;SDS011;36061;48.116;11.612;2022-07-01T13:15:42;4.10;;;2.20;;
50161;SDS011;36061;48.116;11.612;2022-07-01T13:18:08;4.37;;;2.07;;
50161;SDS011;36061;48.116;11.612;2022-07-01T13:20:34;2.10;;;1.67;;
50161;SDS011;36061;48.116;11.612;2022-07-01T13:23:00;3.63;;;2.00;;
50161;SDS011;36061;48.116;11.612;2022-07-01T13:25:26;2.87;;;1.73;;
50161;SDS011;36061;48.116;11.612;2022-07-01T13:27:53;2.33;;;1.67;;
50161;SDS011;36061;48.116;11.612;2022-07-01T13:30:19;2.93;;;2.03;;
50161;SDS011;36061;48.116;11.612;2022-07-01T13:32:45;4.27;;;1.80;;
50161;SDS011;36061;48.116;11.612;2022-07-01T13:35:11;2.87;;;1.70;;
50161;SDS011;36061;48.116;11.612;2022-07-01T13:37:38;3.53;;;2.20;;
50161;SDS011;36061;48.116;11.612;2022-07-01T13:40:05;4.93;;;2.53;;
50161;SDS011;36061;48.116;11.612;2022-07-01T13:42:31;5.90;;;2.40;;
50161;SDS011;36061;48.116;11.612;2022-07-01T13:44:57;1.70;;;1.60;;
50161;SDS011;36061;48.116;11.612;2022-07-01T13:47:23;1.63;;;1.37;;
50161;SDS011;36061;48.116;11.612;2022-07-01T13:49:49;3.00;;;2.20;;
50161;SDS011;36061;48.116;11.612;2022-07-01T13:52:15;2.13;;;1.63;;
50161;SDS011;36061;48.116;11.612;2022-07-01T13:54:41;2.70;;;1.87;;
50161;SDS011;36061;48.116;11.612;2022-07-01T13:57:07;2.87;;;1.70;;
50161;SDS011;36061;48.116;11.612;2022-07-01T13:59:33;2.00;;;1.83;;
50161;SDS011;36061;48.116;11.612;2022-07-01T14:01:59;3.43;;;2.00;;
50161;SDS011;36061;48.116;11.612;2022-07-01T14:04:25;2.40;;;1.77;;
50161;SDS011;36061;48.116;11.612;2022-07-01T14:06:51;2.70;;;1.57;;
50161;SDS011;36061;48.116;11.612;2022-07-01T14:09:17;3.97;;;2.03;;
50161;SDS011;36061;48.116;11.612;2022-07-01T14:11:43;2.90;;;2.17;;
50161;SDS011;36061;48.116;11.612;2022-07-01T14:14:10;3.77;;;2.00;;
50161;SDS011;36061;48.116;11.612;2022-07-01T14:16:36;2.40;;;2.20;;
50161;SDS011;36061;48.116;11.612;2022-07-01T14:19:02;1.90;;;1.70;;
50161;SDS011;36061;48.116;11.612;2022-07-01T14:21:28;2.53;;;2.03;;
50161;SDS011;36061;48.116;11.612;2022-07-01T14:23:53;4.57;;;2.30;;
50161;SDS011;36061;48.116;11.612;2022-07-01T14:26:19;2.60;;;2.10;;
50161;SDS011;36061;48.116;11.612;2022-07-01T14:28:45;2.37;;;2.13;;
50161;SDS011;36061;48.116;11.612;2022-07-01T14:31:11;4.90;;;2.43;;
50161;SDS011;36061;48.116;11.612;2022-07-01T14:33:37;4.40;;;2.23;;
50161;SDS011;36061;48.116;11.612;2022-07-01T14:36:03;2.40;;;2.00;;
50161;SDS011;36061;48.116;11.612;2022-07-01T14:38:29;3.30;;;2.23;;
50161;SDS011;36061;48.116;11.612;2022-07-01T14:40:55;3.87;;;1.83;;
50161;SDS011;36061;48.116;11.612;2022-07-01T14:43:21;4.70;;;2.70;;
50161;SDS011;36061;48.116;11.612;2022-07-01T14:45:46;2.30;;;2.10;;
50161;SDS011;36061;48.116;11.612;2022-07-01T14:48:12;2.70;;;2.03;;
50161;SDS011;36061;48.116;11.612;2022-07-01T14:50:42;2.33;;;2.10;;
50161;SDS011;36061;48.116;11.612;2022-07-01T14:53:08;3.00;;;2.30;;
50161;SDS011;36061;48.116;11.612;2022-07-01T14:55:34;4.43;;;2.10;;
50161;SDS011;36061;48.116;11.612;2022-07-01T14:58:00;2.30;;;2.10;;
50161;SDS011;36061;48.116;11.612;2022-07-01T15:00:26;4.07;;;2.40;;
50161;SDS011;36061;48.116;11.612;2022-07-01T15:02:54;2.43;;;2.10;;
50161;SDS011;36061;48.116;11.612;2022-07-01T15:05:21;3.10;;;1.90;;
50161;SDS011;36061;48.116;11.612;2022-07-01T15:07:47;3.80;;;2.00;;
50161;SDS011;36061;48.116;11.612;2022-07-01T15:10:13;2.30;;;2.10;;
50161;SDS011;36061;48.116;11.612;2022-07-01T15:12:39;2.93;;;2.03;;
50161;SDS011;36061;48.116;11.612;2022-07-01T15:15:05;4.20;;;2.60;;
50161;SDS011;36061;48.116;11.612;2022-07-01T15:17:31;2.87;;;2.10;;
50161;SDS011;36061;48.116;11.612;2022-07-01T15:19:58;1.87;;;1.50;;
50161;SDS011;36061;48.116;11.612;2022-07-01T15:22:24;2.50;;;1.70;;
50161;SDS011;36061;48.116;11.612;2022-07-01T15:24:50;1.77;;;1.40;;
50161;SDS011;36061;48.116;11.612;2022-07-01T15:27:16;2.47;;;2.30;;
50161;SDS011;36061;48.116;11.612;2022-07-01T15:29:42;2.20;;;2.00;;
50161;SDS011;36061;48.116;11.612;2022-07-01T15:32:07;2.00;;;1.77;;
50161;SDS011;36061;48.116;11.612;2022-07-01T15:34:33;4.77;;;1.80;;
50161;SDS011;36061;48.116;11.612;2022-07-01T15:36:59;1.90;;;1.70;;
50161;SDS011;36061;48.116;11.612;2022-07-01T15:39:25;2.37;;;2.17;;
50161;SDS011;36061;48.116;11.612;2022-07-01T15:41:53;3.40;;;2.07;;
50161;SDS011;36061;48.116;11.612;2022-07-01T15:44:20;3.57;;;2.40;;
50161;SDS011;36061;48.116;11.612;2022-07-01T15:46:46;3.07;;;2.13;;
50161;SDS011;36061;48.116;11.612;2022-07-01T15:49:12;2.67;;;1.80;;
50161;SDS011;36061;48.116;11.612;2022-07-01T15:51:38;1.13;;;1.10;;
50161;SDS011;36061;48.116;11.612;2022-07-01T15:54:04;1.73;;;1.33;;
50161;SDS011;36061;48.116;11.612;2022-07-01T15:56:30;1.47;;;1.17;;
50161;SDS011;36061;48.116;11.612;2022-07-01T15:58:57;3.17;;;1.50;;
50161;SDS011;36061;48.116;11.612;2022-07-01T16:01:23;2.53;;;1.27;;
50161;SDS011;36061;48.116;11.612;2022-07-01T16:03:51;2.73;;;1.97;;
50161;SDS011;36061;48.116;11.612;2022-07-01T16:06:18;2.47;;;1.40;;
50161;SDS011;36061;48.116;11.612;2022-07-01T16:08:50;2.87;;;1.03;;
50161;SDS011;36061;48.116;11.612;2022-07-01T16:11:19;1.50;;;1.30;;
50161;SDS011;36061;48.116;11.612;2022-07-01T16:13:52;1.67;;;1.40;;
50161;SDS011;36061;48.116;11.612;2022-07-01T16:16:21;0.83;;;0.83;;
50161;SDS011;36061;48.116;11.612;2022-07-01T16:18:48;1.00;;;0.90;;
50161;SDS011;36061;48.116;11.612;2022-07-01T16:21:15;6.30;;;1.10;;
50161;SDS011;36061;48.116;11.612;2022-07-01T16:23:41;1.20;;;0.90;;
50161;SDS011;36061;48.116;11.612;2022-07-01T16:26:18;1.50;;;1.20;;
50161;SDS011;36061;48.116;11.612;2022-07-01T16:28:46;1.50;;;1.27;;
50161;SDS011;36061;48.116;11.612;2022-07-01T16:31:13;1.63;;;0.90;;
50161;SDS011;36061;48.116;11.612;2022-07-01T16:33:41;4.70;;;1.10;;
50161;SDS011;36061;48.116;11.612;2022-07-01T16:36:10;1.10;;;1.00;;
50161;SDS011;36061;48.116;11.612;2022-07-01T16:41:22;1.17;;;1.07;;
50161;SDS011;36061;48.116;11.612;2022-07-01T16:44:13;1.10;;;1.00;;
50161;SDS011;36061;48.116;11.612;2022-07-01T16:46:57;3.07;;;1.10;;
50161;SDS011;36061;48.116;11.612;2022-07-01T16:49:26;1.30;;;1.20;;
50161;SDS011;36061;48.116;11.612;2022-07-01T16:51:57;1.20;;;1.10;;
50161;SDS011;36061;48.116;11.612;2022-07-01T16:54:28;1.00;;;0.90;;
50161;SDS011;36061;48.116;11.612;2022-07-01T16:56:57;1.87;;;0.90;;
50161;SDS011;36061;48.116;11.612;2022-07-01T16:59:27;1.87;;;1.00;;
50161;SDS011;36061;48.116;11.612;2022-07-01T17:01:54;1.20;;;1.00;;
50161;SDS011;36061;48.116;11.612;2022-07-01T17:04:25;1.40;;;1.17;;
50161;SDS011;36061;48.116;11.612;2022-07-01T17:06:51;1.80;;;1.33;;
50161;SDS011;36061;48.116;11.612;2022-07-01T17:09:19;1.97;;;1.10;;
50161;SDS011;36061;48.116;11.612;2022-07-01T17:11:46;3.03;;;1.40;;
50161;SDS011;36061;48.116;11.612;2022-07-01T17:14:25;2.80;;;1.33;;
50161;SDS011;36061;48.116;11.612;2022-07-01T17:16:51;1.30;;;1.20;;
50161;SDS011;36061;48.116;11.612;2022-07-01T17:19:17;1.57;;;1.30;;
50161;SDS011;36061;48.116;11.612;2022-07-01T17:21:44;5.10;;;1.40;;
50161;SDS011;36061;48.116;11.612;2022-07-01T17:24:11;2.17;;;1.00;;
50161;SDS011;36061;48.116;11.612;2022-07-01T17:26:49;1.87;;;1.17;;
50161;SDS011;36061;48.116;11.612;2022-07-01T17:29:23;3.77;;;1.80;;
50161;SDS011;36061;48.116;11.612;2022-07-01T17:31:52;1.80;;;1.17;;
50161;SDS011;36061;48.116;11.612;2022-07-01T17:34:22;3.23;;;1.10;;
50161;SDS011;36061;48.116;11.612;2022-07-01T17:36:50;1.70;;;0.93;;
50161;SDS011;36061;48.116;11.612;2022-07-01T17:39:16;1.90;;;1.00;;
50161;SDS011;36061;48.116;11.612;2022-07-01T17:41:43;2.00;;;0.83;;
50161;SDS011;36061;48.116;11.612;2022-07-01T17:44:19;1.70;;;1.00;;
50161;SDS011;36061;48.116;11.612;2022-07-01T17:46:47;2.20;;;0.97;;
50161;SDS011;36061;48.116;11.612;2022-07-01T17:49:16;1.27;;;1.13;;
50161;SDS011;36061;48.116;11.612;2022-07-01T17:51:48;2.07;;;1.33;;
50161;SDS011;36061;48.116;11.612;2022-07-01T17:54:15;2.47;;;1.70;;
50161;SDS011;36061;48.116;11.612;2022-07-01T17:56:42;1.93;;;1.40;;
50161;SDS011;36061;48.116;11.612;2022-07-01T17:59:08;1.10;;;1.00;;
50161;SDS011;36061;48.116;11.612;2022-07-01T18:01:38;1.30;;;1.13;;
50161;SDS011;36061;48.116;11.612;2022-07-01T18:04:07;2.00;;;1.37;;
50161;SDS011;36061;48.116;11.612;2022-07-01T18:06:33;1.10;;;1.00;;
50161;SDS011;36061;48.116;11.612;2022-07-01T18:08:59;1.70;;;0.90;;
50161;SDS011;36061;48.116;11.612;2022-07-01T18:11:34;1.27;;;1.07;;
50161;SDS011;36061;48.116;11.612;2022-07-01T18:14:08;1.83;;;1.20;;
50161;SDS011;36061;48.116;11.612;2022-07-01T18:21:55;2.37;;;1.13;;
50161;SDS011;36061;48.116;11.612;2022-07-01T18:24:34;1.40;;;1.10;;
50161;SDS011;36061;48.116;11.612;2022-07-01T18:27:07;1.77;;;1.67;;
50161;SDS011;36061;48.116;11.612;2022-07-01T18:29:35;1.93;;;1.20;;
50161;SDS011;36061;48.116;11.612;2022-07-01T18:32:05;1.27;;;1.07;;
50161;SDS011;36061;48.116;11.612;2022-07-01T18:34:37;1.43;;;1.17;;
50161;SDS011;36061;48.116;11.612;2022-07-01T18:37:47;1.30;;;1.20;;
50161;SDS011;36061;48.116;11.612;2022-07-01T18:40:19;1.10;;;1.00;;
50161;SDS011;36061;48.116;11.612;2022-07-01T18:42:46;1.30;;;1.20;;
50161;SDS011;36061;48.116;11.612;2022-07-01T18:45:12;1.50;;;1.40;;
50161;SDS011;36061;48.116;11.612;2022-07-01T18:47:39;1.33;;;1.23;;
50161;SDS011;36061;48.116;11.612;2022-07-01T18:50:06;1.10;;;1.00;;
50161;SDS011;36061;48.116;11.612;2022-07-01T18:52:33;2.03;;;1.63;;
50161;SDS011;36061;48.116;11.612;2022-07-01T18:54:59;2.70;;;1.40;;
50161;SDS011;36061;48.116;11.612;2022-07-01T18:57:25;1.60;;;1.30;;
50161;SDS011;36061;48.116;11.612;2022-07-01T18:59:51;1.50;;;1.40;;
50161;SDS011;36061;48.116;11.612;2022-07-01T19:02:17;2.63;;;1.10;;
50161;SDS011;36061;48.116;11.612;2022-07-01T19:04:43;0.93;;;0.93;;
50161;SDS011;36061;48.116;11.612;2022-07-01T19:07:10;2.37;;;1.40;;
50161;SDS011;36061;48.116;11.612;2022-07-01T19:09:40;1.43;;;1.20;;
50161;SDS011;36061;48.116;11.612;2022-07-01T19:12:09;2.17;;;1.10;;
50161;SDS011;36061;48.116;11.612;2022-07-01T19:14:35;1.80;;;1.30;;
50161;SDS011;36061;48.116;11.612;2022-07-01T19:17:01;2.87;;;1.20;;
50161;SDS011;36061;48.116;11.612;2022-07-01T19:19:28;2.27;;;1.33;;
50161;SDS011;36061;48.116;11.612;2022-07-01T19:21:54;2.17;;;1.30;;
50161;SDS011;36061;48.116;11.612;2022-07-01T19:24:21;2.77;;;2.20;;
50161;SDS011;36061;48.116;11.612;2022-07-01T19:26:47;1.90;;;1.70;;
50161;SDS011;36061;48.116;11.612;2022-07-01T19:29:15;1.00;;;0.90;;
50161;SDS011;36061;48.116;11.612;2022-07-01T19:31:41;1.97;;;1.23;;
50161;SDS011;36061;48.116;11.612;2022-07-01T19:34:07;2.47;;;1.50;;
50161;SDS011;36061;48.116;11.612;2022-07-01T19:36:32;1.70;;;1.37;;